sensor_id;sensor_type;location;lat;lon;timestamp;P1;durP1;ratioP1;P2;durP2;ratioP2
8849;SDS011;5638;50.860;4.698;2022-09-09T00:00:41;7.93;;;1.30;;
8849;SDS011;5638;50.860;4.698;2022-09-09T00:03:21;2.77;;;1.20;;
8849;SDS011;5638;50.860;4.698;2022-09-09T00:08:31;1.47;;;1.23;;
8849;SDS011;5638;50.860;4.698;2022-09-09T00:11:05;1.50;;;1.20;;
8849;SDS011;5638;50.860;4.698;2022-09-09T00:13:39;2.10;;;1.27;;
8849;SDS011;5638;50.860;4.698;2022-09-09T00:16:17;1.27;;;1.17;;
8849;SDS011;5638;50.860;4.698;2022-09-09T00:21:38;1.87;;;1.23;;
8849;SDS011;5638;50.860;4.698;2022-09-09T00:24:29;2.03;;;1.17;;
8849;SDS011;5638;50.860;4.698;2022-09-09T00:27:24;3.13;;;1.23;;
8849;SDS011;5638;50.860;4.698;2022-09-09T00:29:56;2.00;;;1.40;;
8849;SDS011;5638;50.860;4.698;2022-09-09T00:32:39;2.30;;;1.20;;
8849;SDS011;5638;50.860;4.698;2022-09-09T00:37:56;2.97;;;1.33;;
8849;SDS011;5638;50.860;4.698;2022-09-09T00:40:38;1.30;;;1.13;;
8849;SDS011;5638;50.860;4.698;2022-09-09T00:48:37;2.00;;;1.27;;
8849;SDS011;5638;50.860;4.698;2022-09-09T00:57:17;1.70;;;1.10;;
8849;SDS011;5638;50.860;4.698;2022-09-09T01:00:15;3.33;;;1.33;;
8849;SDS011;5638;50.860;4.698;2022-09-09T01:09:01;2.70;;;1.00;;
8849;SDS011;5638;50.860;4.698;2022-09-09T01:28:08;5.97;;;1.33;;
8849;SDS011;5638;50.860;4.698;2022-09-09T01:30:41;2.67;;;1.60;;
8849;SDS011;5638;50.860;4.698;2022-09-09T01:33:10;2.67;;;1.20;;
8849;SDS011;5638;50.860;4.698;2022-09-09T01:38:46;1.87;;;1.00;;
8849;SDS011;5638;50.860;4.698;2022-09-09T01:41:12;1.63;;;1.10;;
8849;SDS011;5638;50.860;4.698;2022-09-09T01:43:38;3.30;;;1.47;;
8849;SDS011;5638;50.860;4.698;2022-09-09T01:46:04;4.03;;;1.27;;
8849;SDS011;5638;50.860;4.698;2022-09-09T01:48:31;2.37;;;1.23;;
8849;SDS011;5638;50.860;4.698;2022-09-09T01:50:58;1.83;;;1.30;;
8849;SDS011;5638;50.860;4.698;2022-09-09T01:53:23;1.93;;;1.27;;
8849;SDS011;5638;50.860;4.698;2022-09-09T02:03:44;2.70;;;1.40;;
8849;SDS011;5638;50.860;4.698;2022-09-09T02:06:25;3.53;;;1.50;;
8849;SDS011;5638;50.860;4.698;2022-09-09T02:08:59;4.80;;;1.60;;
8849;SDS011;5638;50.860;4.698;2022-09-09T02:11:31;2.43;;;1.43;;
8849;SDS011;5638;50.860;4.698;2022-09-09T02:14:15;1.63;;;1.17;;
8849;SDS011;5638;50.860;4.698;2022-09-09T02:16:55;2.97;;;1.20;;
8849;SDS011;5638;50.860;4.698;2022-09-09T02:19:32;1.83;;;1.10;;
8849;SDS011;5638;50.860;4.698;2022-09-09T02:22:07;2.87;;;1.40;;
8849;SDS011;5638;50.860;4.698;2022-09-09T02:24:34;4.20;;;1.40;;
8849;SDS011;5638;50.860;4.698;2022-09-09T02:27:06;2.60;;;1.47;;
8849;SDS011;5638;50.860;4.698;2022-09-09T02:29:35;3.53;;;1.30;;
8849;SDS011;5638;50.860;4.698;2022-09-09T02:32:16;2.93;;;1.20;;
8849;SDS011;5638;50.860;4.698;2022-09-09T02:34:49;3.47;;;1.50;;
8849;SDS011;5638;50.860;4.698;2022-09-09T02:37:27;2.20;;;1.17;;
8849;SDS011;5638;50.860;4.698;2022-09-09T02:40:02;4.23;;;1.30;;
8849;SDS011;5638;50.860;4.698;2022-09-09T02:42:31;3.93;;;1.57;;
8849;SDS011;5638;50.860;4.698;2022-09-09T02:45:04;2.80;;;1.30;;
8849;SDS011;5638;50.860;4.698;2022-09-09T02:47:34;4.67;;;1.20;;
8849;SDS011;5638;50.860;4.698;2022-09-09T02:50:15;3.63;;;1.40;;
8849;SDS011;5638;50.860;4.698;2022-09-09T02:58:30;2.70;;;1.40;;
8849;SDS011;5638;50.860;4.698;2022-09-09T03:00:57;2.40;;;1.40;;
8849;SDS011;5638;50.860;4.698;2022-09-09T03:03:26;8.87;;;1.67;;
8849;SDS011;5638;50.860;4.698;2022-09-09T03:05:52;2.10;;;1.20;;
8849;SDS011;5638;50.860;4.698;2022-09-09T03:08:18;6.50;;;1.70;;
8849;SDS011;5638;50.860;4.698;2022-09-09T03:10:43;2.30;;;1.47;;
8849;SDS011;5638;50.860;4.698;2022-09-09T03:13:10;3.40;;;1.40;;
8849;SDS011;5638;50.860;4.698;2022-09-09T03:15:38;8.03;;;1.43;;
8849;SDS011;5638;50.860;4.698;2022-09-09T03:18:03;3.33;;;1.43;;
8849;SDS011;5638;50.860;4.698;2022-09-09T03:20:30;3.40;;;1.33;;
8849;SDS011;5638;50.860;4.698;2022-09-09T03:22:56;4.33;;;1.47;;
8849;SDS011;5638;50.860;4.698;2022-09-09T03:25:24;4.40;;;1.33;;
8849;SDS011;5638;50.860;4.698;2022-09-09T03:27:50;5.83;;;1.47;;
8849;SDS011;5638;50.860;4.698;2022-09-09T03:30:20;3.93;;;1.40;;
8849;SDS011;5638;50.860;4.698;2022-09-09T03:32:51;2.90;;;1.33;;
8849;SDS011;5638;50.860;4.698;2022-09-09T03:35:17;5.83;;;1.77;;
8849;SDS011;5638;50.860;4.698;2022-09-09T03:37:43;3.80;;;1.47;;
8849;SDS011;5638;50.860;4.698;2022-09-09T03:40:10;3.33;;;1.50;;
8849;SDS011;5638;50.860;4.698;2022-09-09T03:42:37;2.70;;;1.53;;
8849;SDS011;5638;50.860;4.698;2022-09-09T03:45:08;4.53;;;1.33;;
8849;SDS011;5638;50.860;4.698;2022-09-09T03:47:35;3.77;;;1.83;;
8849;SDS011;5638;50.860;4.698;2022-09-09T03:50:02;3.60;;;1.40;;
8849;SDS011;5638;50.860;4.698;2022-09-09T03:52:31;2.23;;;1.40;;
8849;SDS011;5638;50.860;4.698;2022-09-09T03:55:00;3.27;;;1.30;;
8849;SDS011;5638;50.860;4.698;2022-09-09T03:57:26;7.27;;;1.47;;
8849;SDS011;5638;50.860;4.698;2022-09-09T03:59:52;3.00;;;1.50;;
8849;SDS011;5638;50.860;4.698;2022-09-09T04:02:18;5.77;;;1.40;;
8849;SDS011;5638;50.860;4.698;2022-09-09T04:04:43;6.03;;;1.50;;
8849;SDS011;5638;50.860;4.698;2022-09-09T04:07:09;4.13;;;1.67;;
8849;SDS011;5638;50.860;4.698;2022-09-09T04:09:36;7.97;;;1.90;;
8849;SDS011;5638;50.860;4.698;2022-09-09T04:12:02;3.70;;;1.47;;
8849;SDS011;5638;50.860;4.698;2022-09-09T04:14:29;6.27;;;1.97;;
8849;SDS011;5638;50.860;4.698;2022-09-09T04:16:55;3.77;;;1.30;;
8849;SDS011;5638;50.860;4.698;2022-09-09T04:19:23;2.63;;;1.50;;
8849;SDS011;5638;50.860;4.698;2022-09-09T04:21:49;3.47;;;1.30;;
8849;SDS011;5638;50.860;4.698;2022-09-09T04:24:16;2.87;;;1.33;;
8849;SDS011;5638;50.860;4.698;2022-09-09T04:26:43;4.67;;;1.40;;
8849;SDS011;5638;50.860;4.698;2022-09-09T04:29:10;2.90;;;1.37;;
8849;SDS011;5638;50.860;4.698;2022-09-09T04:31:36;4.07;;;1.60;;
8849;SDS011;5638;50.860;4.698;2022-09-09T04:34:06;3.63;;;1.57;;
8849;SDS011;5638;50.860;4.698;2022-09-09T04:36:36;6.87;;;1.73;;
8849;SDS011;5638;50.860;4.698;2022-09-09T04:39:05;5.57;;;1.50;;
8849;SDS011;5638;50.860;4.698;2022-09-09T04:41:31;7.77;;;1.80;;
8849;SDS011;5638;50.860;4.698;2022-09-09T04:43:57;10.23;;;1.80;;
8849;SDS011;5638;50.860;4.698;2022-09-09T04:46:24;6.13;;;1.53;;
8849;SDS011;5638;50.860;4.698;2022-09-09T04:48:50;8.77;;;1.77;;
8849;SDS011;5638;50.860;4.698;2022-09-09T04:51:18;2.67;;;1.40;;
8849;SDS011;5638;50.860;4.698;2022-09-09T04:53:44;4.00;;;1.80;;
8849;SDS011;5638;50.860;4.698;2022-09-09T04:56:15;5.47;;;2.07;;
8849;SDS011;5638;50.860;4.698;2022-09-09T04:58:43;4.80;;;1.90;;
8849;SDS011;5638;50.860;4.698;2022-09-09T05:03:46;5.37;;;1.70;;
8849;SDS011;5638;50.860;4.698;2022-09-09T05:06:13;4.63;;;1.97;;
8849;SDS011;5638;50.860;4.698;2022-09-09T05:08:43;10.03;;;1.73;;
8849;SDS011;5638;50.860;4.698;2022-09-09T05:13:50;6.40;;;1.70;;
8849;SDS011;5638;50.860;4.698;2022-09-09T05:16:17;8.20;;;1.80;;
8849;SDS011;5638;50.860;4.698;2022-09-09T05:18:44;6.13;;;1.70;;
8849;SDS011;5638;50.860;4.698;2022-09-09T05:21:11;5.63;;;2.00;;
8849;SDS011;5638;50.860;4.698;2022-09-09T05:23:39;11.90;;;2.10;;
8849;SDS011;5638;50.860;4.698;2022-09-09T05:26:06;5.97;;;1.90;;
8849;SDS011;5638;50.860;4.698;2022-09-09T05:28:39;7.93;;;2.00;;
8849;SDS011;5638;50.860;4.698;2022-09-09T05:31:06;4.47;;;1.97;;
8849;SDS011;5638;50.860;4.698;2022-09-09T05:33:34;4.70;;;1.73;;
8849;SDS011;5638;50.860;4.698;2022-09-09T05:36:02;3.30;;;1.60;;
8849;SDS011;5638;50.860;4.698;2022-09-09T05:38:31;4.47;;;2.17;;
8849;SDS011;5638;50.860;4.698;2022-09-09T05:40:58;6.40;;;1.67;;
8849;SDS011;5638;50.860;4.698;2022-09-09T05:43:25;5.20;;;1.53;;
8849;SDS011;5638;50.860;4.698;2022-09-09T05:46:25;5.73;;;2.07;;
8849;SDS011;5638;50.860;4.698;2022-09-09T05:48:46;5.77;;;1.97;;
8849;SDS011;5638;50.860;4.698;2022-09-09T05:51:21;3.33;;;2.00;;
8849;SDS011;5638;50.860;4.698;2022-09-09T05:53:53;4.07;;;1.63;;
8849;SDS011;5638;50.860;4.698;2022-09-09T05:56:21;4.77;;;1.80;;
8849;SDS011;5638;50.860;4.698;2022-09-09T05:58:50;5.47;;;1.93;;
8849;SDS011;5638;50.860;4.698;2022-09-09T06:01:20;5.80;;;1.80;;
8849;SDS011;5638;50.860;4.698;2022-09-09T06:03:49;3.77;;;1.73;;
8849;SDS011;5638;50.860;4.698;2022-09-09T06:06:19;6.70;;;2.00;;
8849;SDS011;5638;50.860;4.698;2022-09-09T06:08:53;4.03;;;1.57;;
8849;SDS011;5638;50.860;4.698;2022-09-09T06:11:27;4.80;;;1.90;;
8849;SDS011;5638;50.860;4.698;2022-09-09T06:13:59;3.63;;;1.70;;
8849;SDS011;5638;50.860;4.698;2022-09-09T06:16:26;4.30;;;1.77;;
8849;SDS011;5638;50.860;4.698;2022-09-09T06:18:54;4.33;;;1.73;;
8849;SDS011;5638;50.860;4.698;2022-09-09T06:21:25;5.27;;;2.17;;
8849;SDS011;5638;50.860;4.698;2022-09-09T06:24:02;6.93;;;2.37;;
8849;SDS011;5638;50.860;4.698;2022-09-09T06:26:36;3.00;;;1.57;;
8849;SDS011;5638;50.860;4.698;2022-09-09T06:29:06;3.53;;;1.60;;
8849;SDS011;5638;50.860;4.698;2022-09-09T06:31:33;5.97;;;1.73;;
8849;SDS011;5638;50.860;4.698;2022-09-09T06:34:02;4.23;;;2.00;;
8849;SDS011;5638;50.860;4.698;2022-09-09T06:36:32;4.93;;;1.43;;
8849;SDS011;5638;50.860;4.698;2022-09-09T06:39:02;3.57;;;1.70;;
8849;SDS011;5638;50.860;4.698;2022-09-09T06:41:30;5.60;;;1.97;;
8849;SDS011;5638;50.860;4.698;2022-09-09T06:43:58;6.00;;;1.60;;
8849;SDS011;5638;50.860;4.698;2022-09-09T06:46:25;4.20;;;1.83;;
8849;SDS011;5638;50.860;4.698;2022-09-09T06:48:54;4.23;;;1.70;;
8849;SDS011;5638;50.860;4.698;2022-09-09T06:51:23;9.20;;;2.20;;
8849;SDS011;5638;50.860;4.698;2022-09-09T06:53:51;9.33;;;2.00;;
8849;SDS011;5638;50.860;4.698;2022-09-09T06:56:33;6.57;;;1.97;;
8849;SDS011;5638;50.860;4.698;2022-09-09T06:59:07;6.90;;;1.90;;
8849;SDS011;5638;50.860;4.698;2022-09-09T07:01:38;5.57;;;1.93;;
8849;SDS011;5638;50.860;4.698;2022-09-09T07:04:06;5.90;;;1.83;;
8849;SDS011;5638;50.860;4.698;2022-09-09T07:06:34;5.90;;;1.63;;
8849;SDS011;5638;50.860;4.698;2022-09-09T07:09:04;3.63;;;1.57;;
8849;SDS011;5638;50.860;4.698;2022-09-09T07:11:39;6.93;;;1.77;;
8849;SDS011;5638;50.860;4.698;2022-09-09T07:14:12;6.37;;;1.37;;
8849;SDS011;5638;50.860;4.698;2022-09-09T07:16:40;7.13;;;2.27;;
8849;SDS011;5638;50.860;4.698;2022-09-09T07:19:07;7.60;;;2.13;;
8849;SDS011;5638;50.860;4.698;2022-09-09T07:21:33;5.50;;;1.83;;
8849;SDS011;5638;50.860;4.698;2022-09-09T07:23:59;6.60;;;1.90;;
8849;SDS011;5638;50.860;4.698;2022-09-09T07:26:26;3.23;;;1.37;;
8849;SDS011;5638;50.860;4.698;2022-09-09T07:28:55;4.43;;;1.50;;
8849;SDS011;5638;50.860;4.698;2022-09-09T07:31:32;3.70;;;1.70;;
8849;SDS011;5638;50.860;4.698;2022-09-09T07:34:01;6.17;;;1.77;;
8849;SDS011;5638;50.860;4.698;2022-09-09T07:36:30;6.80;;;2.07;;
8849;SDS011;5638;50.860;4.698;2022-09-09T07:39:05;5.27;;;2.10;;
8849;SDS011;5638;50.860;4.698;2022-09-09T07:41:35;7.27;;;2.07;;
8849;SDS011;5638;50.860;4.698;2022-09-09T07:44:07;3.80;;;1.70;;
8849;SDS011;5638;50.860;4.698;2022-09-09T07:46:46;9.93;;;2.10;;
8849;SDS011;5638;50.860;4.698;2022-09-09T07:49:12;4.70;;;1.70;;
8849;SDS011;5638;50.860;4.698;2022-09-09T07:51:41;5.03;;;1.57;;
8849;SDS011;5638;50.860;4.698;2022-09-09T07:54:11;2.87;;;1.50;;
8849;SDS011;5638;50.860;4.698;2022-09-09T07:56:40;6.27;;;1.80;;
8849;SDS011;5638;50.860;4.698;2022-09-09T07:59:07;3.77;;;1.80;;
8849;SDS011;5638;50.860;4.698;2022-09-09T08:01:35;5.60;;;1.70;;
8849;SDS011;5638;50.860;4.698;2022-09-09T08:04:12;7.83;;;1.83;;
8849;SDS011;5638;50.860;4.698;2022-09-09T08:06:45;4.33;;;1.70;;
8849;SDS011;5638;50.860;4.698;2022-09-09T08:09:20;4.67;;;1.80;;
8849;SDS011;5638;50.860;4.698;2022-09-09T08:11:50;4.60;;;1.67;;
8849;SDS011;5638;50.860;4.698;2022-09-09T08:14:16;3.13;;;1.20;;
8849;SDS011;5638;50.860;4.698;2022-09-09T08:16:43;5.80;;;1.83;;
8849;SDS011;5638;50.860;4.698;2022-09-09T08:19:12;2.93;;;1.60;;
8849;SDS011;5638;50.860;4.698;2022-09-09T08:21:42;4.43;;;1.67;;
8849;SDS011;5638;50.860;4.698;2022-09-09T08:24:10;8.00;;;1.53;;
8849;SDS011;5638;50.860;4.698;2022-09-09T08:26:41;7.77;;;1.73;;
8849;SDS011;5638;50.860;4.698;2022-09-09T08:29:11;5.40;;;1.30;;
8849;SDS011;5638;50.860;4.698;2022-09-09T08:34:19;5.43;;;1.70;;
8849;SDS011;5638;50.860;4.698;2022-09-09T08:36:47;3.83;;;1.70;;
8849;SDS011;5638;50.860;4.698;2022-09-09T08:39:15;3.70;;;1.50;;
8849;SDS011;5638;50.860;4.698;2022-09-09T08:53:04;5.63;;;1.90;;
8849;SDS011;5638;50.860;4.698;2022-09-09T08:58:27;3.60;;;1.57;;
8849;SDS011;5638;50.860;4.698;2022-09-09T09:07:00;3.03;;;1.83;;
8849;SDS011;5638;50.860;4.698;2022-09-09T09:12:47;5.10;;;1.90;;
8849;SDS011;5638;50.860;4.698;2022-09-09T09:15:16;4.00;;;1.73;;
8849;SDS011;5638;50.860;4.698;2022-09-09T09:17:48;3.57;;;1.60;;
8849;SDS011;5638;50.860;4.698;2022-09-09T09:20:15;5.43;;;1.93;;
8849;SDS011;5638;50.860;4.698;2022-09-09T09:25:20;3.17;;;1.50;;
8849;SDS011;5638;50.860;4.698;2022-09-09T09:36:18;3.43;;;1.60;;
8849;SDS011;5638;50.860;4.698;2022-09-09T09:38:58;6.67;;;2.03;;
8849;SDS011;5638;50.860;4.698;2022-09-09T09:41:31;3.97;;;1.90;;
8849;SDS011;5638;50.860;4.698;2022-09-09T09:43:56;5.23;;;1.77;;
8849;SDS011;5638;50.860;4.698;2022-09-09T09:46:24;4.60;;;1.83;;
8849;SDS011;5638;50.860;4.698;2022-09-09T09:49:00;4.80;;;1.70;;
8849;SDS011;5638;50.860;4.698;2022-09-09T09:51:30;6.07;;;2.20;;
8849;SDS011;5638;50.860;4.698;2022-09-09T09:54:41;3.90;;;1.67;;
8849;SDS011;5638;50.860;4.698;2022-09-09T09:56:53;6.97;;;2.60;;
8849;SDS011;5638;50.860;4.698;2022-09-09T09:59:22;7.47;;;1.87;;
8849;SDS011;5638;50.860;4.698;2022-09-09T10:02:17;3.13;;;1.73;;
8849;SDS011;5638;50.860;4.698;2022-09-09T10:05:00;4.43;;;1.67;;
8849;SDS011;5638;50.860;4.698;2022-09-09T10:08:03;7.03;;;1.73;;
8849;SDS011;5638;50.860;4.698;2022-09-09T10:10:36;7.30;;;2.23;;
8849;SDS011;5638;50.860;4.698;2022-09-09T10:16:05;2.57;;;1.50;;
8849;SDS011;5638;50.860;4.698;2022-09-09T10:18:59;4.03;;;1.83;;
8849;SDS011;5638;50.860;4.698;2022-09-09T10:25:01;3.07;;;1.70;;
8849;SDS011;5638;50.860;4.698;2022-09-09T10:33:56;4.97;;;1.60;;
8849;SDS011;5638;50.860;4.698;2022-09-09T10:36:56;4.77;;;1.67;;
8849;SDS011;5638;50.860;4.698;2022-09-09T10:42:14;3.30;;;1.70;;
8849;SDS011;5638;50.860;4.698;2022-09-09T10:48:08;2.57;;;1.40;;
8849;SDS011;5638;50.860;4.698;2022-09-09T10:53:51;6.93;;;2.10;;
8849;SDS011;5638;50.860;4.698;2022-09-09T10:56:51;6.70;;;1.93;;
8849;SDS011;5638;50.860;4.698;2022-09-09T10:59:31;3.37;;;1.90;;
8849;SDS011;5638;50.860;4.698;2022-09-09T11:02:11;2.93;;;1.60;;
8849;SDS011;5638;50.860;4.698;2022-09-09T11:04:55;2.70;;;1.73;;
8849;SDS011;5638;50.860;4.698;2022-09-09T11:16:19;2.43;;;1.63;;
8849;SDS011;5638;50.860;4.698;2022-09-09T11:19:02;5.67;;;2.00;;
8849;SDS011;5638;50.860;4.698;2022-09-09T11:21:50;5.07;;;2.00;;
8849;SDS011;5638;50.860;4.698;2022-09-09T11:30:10;5.10;;;2.07;;
8849;SDS011;5638;50.860;4.698;2022-09-09T11:33:11;8.80;;;2.03;;
8849;SDS011;5638;50.860;4.698;2022-09-09T11:39:17;3.33;;;1.77;;
8849;SDS011;5638;50.860;4.698;2022-09-09T11:44:37;3.83;;;1.63;;
8849;SDS011;5638;50.860;4.698;2022-09-09T11:47:03;7.37;;;1.70;;
8849;SDS011;5638;50.860;4.698;2022-09-09T11:49:45;2.23;;;1.23;;
8849;SDS011;5638;50.860;4.698;2022-09-09T11:52:12;4.47;;;1.73;;
8849;SDS011;5638;50.860;4.698;2022-09-09T11:55:07;3.70;;;1.40;;
8849;SDS011;5638;50.860;4.698;2022-09-09T12:00:48;2.57;;;1.47;;
8849;SDS011;5638;50.860;4.698;2022-09-09T12:06:33;7.13;;;1.50;;
8849;SDS011;5638;50.860;4.698;2022-09-09T12:17:24;3.43;;;1.37;;
8849;SDS011;5638;50.860;4.698;2022-09-09T12:22:50;2.20;;;1.53;;
8849;SDS011;5638;50.860;4.698;2022-09-09T12:34:16;2.40;;;1.33;;
8849;SDS011;5638;50.860;4.698;2022-09-09T12:37:02;6.53;;;1.57;;
8849;SDS011;5638;50.860;4.698;2022-09-09T12:39:59;2.60;;;1.43;;
8849;SDS011;5638;50.860;4.698;2022-09-09T12:42:47;4.13;;;1.37;;
8849;SDS011;5638;50.860;4.698;2022-09-09T12:45:19;4.83;;;1.40;;
8849;SDS011;5638;50.860;4.698;2022-09-09T12:47:53;4.77;;;1.57;;
8849;SDS011;5638;50.860;4.698;2022-09-09T12:50:37;3.77;;;1.40;;
8849;SDS011;5638;50.860;4.698;2022-09-09T12:53:22;3.60;;;1.60;;
8849;SDS011;5638;50.860;4.698;2022-09-09T12:56:01;2.53;;;1.13;;
8849;SDS011;5638;50.860;4.698;2022-09-09T12:58:30;3.00;;;1.60;;
8849;SDS011;5638;50.860;4.698;2022-09-09T13:00:59;2.23;;;1.30;;
8849;SDS011;5638;50.860;4.698;2022-09-09T13:03:30;2.60;;;1.47;;
8849;SDS011;5638;50.860;4.698;2022-09-09T13:05:58;3.63;;;1.70;;
8849;SDS011;5638;50.860;4.698;2022-09-09T13:08:37;3.13;;;1.60;;
8849;SDS011;5638;50.860;4.698;2022-09-09T13:11:06;3.37;;;1.40;;
8849;SDS011;5638;50.860;4.698;2022-09-09T13:13:41;4.20;;;1.43;;
8849;SDS011;5638;50.860;4.698;2022-09-09T13:16:19;1.90;;;1.20;;
8849;SDS011;5638;50.860;4.698;2022-09-09T13:18:50;2.10;;;1.30;;
8849;SDS011;5638;50.860;4.698;2022-09-09T13:21:18;2.03;;;1.40;;
8849;SDS011;5638;50.860;4.698;2022-09-09T13:23:49;1.60;;;1.17;;
8849;SDS011;5638;50.860;4.698;2022-09-09T13:26:24;3.43;;;1.53;;
8849;SDS011;5638;50.860;4.698;2022-09-09T13:28:54;1.37;;;1.10;;
8849;SDS011;5638;50.860;4.698;2022-09-09T13:31:45;5.80;;;1.57;;
8849;SDS011;5638;50.860;4.698;2022-09-09T13:34:12;4.17;;;1.40;;
8849;SDS011;5638;50.860;4.698;2022-09-09T13:36:52;2.70;;;1.10;;
8849;SDS011;5638;50.860;4.698;2022-09-09T13:39:30;3.33;;;1.33;;
8849;SDS011;5638;50.860;4.698;2022-09-09T13:42:01;3.50;;;1.37;;
8849;SDS011;5638;50.860;4.698;2022-09-09T13:44:30;2.17;;;1.30;;
8849;SDS011;5638;50.860;4.698;2022-09-09T13:47:04;1.87;;;1.10;;
8849;SDS011;5638;50.860;4.698;2022-09-09T13:49:44;2.53;;;1.30;;
8849;SDS011;5638;50.860;4.698;2022-09-09T13:52:15;1.70;;;1.27;;
8849;SDS011;5638;50.860;4.698;2022-09-09T13:54:47;2.13;;;1.10;;
8849;SDS011;5638;50.860;4.698;2022-09-09T13:57:16;2.57;;;1.30;;
8849;SDS011;5638;50.860;4.698;2022-09-09T13:59:45;3.13;;;1.20;;
8849;SDS011;5638;50.860;4.698;2022-09-09T14:02:12;2.10;;;1.20;;
8849;SDS011;5638;50.860;4.698;2022-09-09T14:04:41;1.10;;;0.87;;
8849;SDS011;5638;50.860;4.698;2022-09-09T14:07:09;2.10;;;1.00;;
8849;SDS011;5638;50.860;4.698;2022-09-09T14:09:40;1.70;;;1.20;;
8849;SDS011;5638;50.860;4.698;2022-09-09T14:12:10;2.73;;;1.13;;
8849;SDS011;5638;50.860;4.698;2022-09-09T14:14:37;4.70;;;1.20;;
8849;SDS011;5638;50.860;4.698;2022-09-09T14:17:03;3.47;;;1.30;;
8849;SDS011;5638;50.860;4.698;2022-09-09T14:19:29;4.33;;;1.23;;
8849;SDS011;5638;50.860;4.698;2022-09-09T14:21:56;1.93;;;1.10;;
8849;SDS011;5638;50.860;4.698;2022-09-09T14:24:23;2.23;;;1.17;;
8849;SDS011;5638;50.860;4.698;2022-09-09T14:26:48;1.53;;;1.07;;
8849;SDS011;5638;50.860;4.698;2022-09-09T14:29:14;3.23;;;1.40;;
8849;SDS011;5638;50.860;4.698;2022-09-09T14:31:40;1.23;;;1.10;;
8849;SDS011;5638;50.860;4.698;2022-09-09T14:34:06;1.33;;;1.10;;
8849;SDS011;5638;50.860;4.698;2022-09-09T14:36:32;3.47;;;1.30;;
8849;SDS011;5638;50.860;4.698;2022-09-09T14:38:58;2.03;;;1.27;;
8849;SDS011;5638;50.860;4.698;2022-09-09T14:41:24;1.97;;;1.10;;
8849;SDS011;5638;50.860;4.698;2022-09-09T14:43:50;4.43;;;1.90;;
8849;SDS011;5638;50.860;4.698;2022-09-09T14:46:17;1.77;;;1.17;;
8849;SDS011;5638;50.860;4.698;2022-09-09T14:48:45;3.17;;;1.37;;
8849;SDS011;5638;50.860;4.698;2022-09-09T14:51:19;2.63;;;1.17;;
8849;SDS011;5638;50.860;4.698;2022-09-09T14:53:47;2.03;;;1.30;;
8849;SDS011;5638;50.860;4.698;2022-09-09T14:56:19;3.00;;;1.70;;
8849;SDS011;5638;50.860;4.698;2022-09-09T14:58:49;3.27;;;1.20;;
8849;SDS011;5638;50.860;4.698;2022-09-09T15:01:16;1.77;;;1.40;;
8849;SDS011;5638;50.860;4.698;2022-09-09T15:03:51;1.83;;;1.10;;
8849;SDS011;5638;50.860;4.698;2022-09-09T15:06:21;3.67;;;1.30;;
8849;SDS011;5638;50.860;4.698;2022-09-09T15:08:49;1.40;;;1.10;;
8849;SDS011;5638;50.860;4.698;2022-09-09T15:11:17;2.13;;;1.40;;
8849;SDS011;5638;50.860;4.698;2022-09-09T15:13:45;3.30;;;1.10;;
8849;SDS011;5638;50.860;4.698;2022-09-09T15:16:16;3.10;;;1.20;;
8849;SDS011;5638;50.860;4.698;2022-09-09T15:18:44;2.03;;;1.30;;
8849;SDS011;5638;50.860;4.698;2022-09-09T15:21:12;5.60;;;1.40;;
8849;SDS011;5638;50.860;4.698;2022-09-09T15:23:47;1.43;;;1.27;;
8849;SDS011;5638;50.860;4.698;2022-09-09T15:26:14;5.23;;;1.33;;
8849;SDS011;5638;50.860;4.698;2022-09-09T15:28:41;1.77;;;1.10;;
8849;SDS011;5638;50.860;4.698;2022-09-09T15:31:15;2.30;;;1.10;;
8849;SDS011;5638;50.860;4.698;2022-09-09T15:33:48;4.67;;;1.20;;
8849;SDS011;5638;50.860;4.698;2022-09-09T15:36:18;1.53;;;1.03;;
8849;SDS011;5638;50.860;4.698;2022-09-09T15:38:48;1.23;;;1.10;;
8849;SDS011;5638;50.860;4.698;2022-09-09T15:41:15;2.17;;;1.30;;
8849;SDS011;5638;50.860;4.698;2022-09-09T15:43:46;2.00;;;1.40;;
8849;SDS011;5638;50.860;4.698;2022-09-09T15:48:55;3.63;;;1.50;;
8849;SDS011;5638;50.860;4.698;2022-09-09T15:51:28;3.33;;;1.20;;
8849;SDS011;5638;50.860;4.698;2022-09-09T15:53:55;2.73;;;1.30;;
8849;SDS011;5638;50.860;4.698;2022-09-09T15:56:24;5.43;;;1.20;;
8849;SDS011;5638;50.860;4.698;2022-09-09T15:58:53;1.80;;;1.13;;
8849;SDS011;5638;50.860;4.698;2022-09-09T16:01:20;2.43;;;1.20;;
8849;SDS011;5638;50.860;4.698;2022-09-09T16:03:46;2.93;;;1.33;;
8849;SDS011;5638;50.860;4.698;2022-09-09T16:06:13;3.97;;;1.30;;
8849;SDS011;5638;50.860;4.698;2022-09-09T16:08:41;2.40;;;1.30;;
8849;SDS011;5638;50.860;4.698;2022-09-09T16:11:13;2.97;;;1.40;;
8849;SDS011;5638;50.860;4.698;2022-09-09T16:13:45;3.30;;;1.60;;
8849;SDS011;5638;50.860;4.698;2022-09-09T16:16:14;2.37;;;1.03;;
8849;SDS011;5638;50.860;4.698;2022-09-09T16:18:48;1.70;;;1.10;;
8849;SDS011;5638;50.860;4.698;2022-09-09T16:21:37;2.63;;;1.27;;
8849;SDS011;5638;50.860;4.698;2022-09-09T16:24:07;2.77;;;1.47;;
8849;SDS011;5638;50.860;4.698;2022-09-09T16:26:36;1.90;;;1.27;;
8849;SDS011;5638;50.860;4.698;2022-09-09T16:29:06;2.17;;;1.23;;
8849;SDS011;5638;50.860;4.698;2022-09-09T16:31:32;3.27;;;1.50;;
8849;SDS011;5638;50.860;4.698;2022-09-09T16:33:58;2.30;;;1.40;;
8849;SDS011;5638;50.860;4.698;2022-09-09T16:36:28;2.73;;;1.60;;
8849;SDS011;5638;50.860;4.698;2022-09-09T16:38:57;4.30;;;1.90;;
8849;SDS011;5638;50.860;4.698;2022-09-09T16:41:26;4.57;;;1.70;;
8849;SDS011;5638;50.860;4.698;2022-09-09T16:43:58;2.13;;;1.53;;
8849;SDS011;5638;50.860;4.698;2022-09-09T16:46:27;2.07;;;1.70;;
8849;SDS011;5638;50.860;4.698;2022-09-09T16:48:56;3.90;;;1.40;;
8849;SDS011;5638;50.860;4.698;2022-09-09T16:51:24;2.93;;;1.87;;
8849;SDS011;5638;50.860;4.698;2022-09-09T16:53:52;2.77;;;1.70;;
8849;SDS011;5638;50.860;4.698;2022-09-09T16:56:24;5.83;;;2.47;;
8849;SDS011;5638;50.860;4.698;2022-09-09T16:58:53;2.77;;;2.00;;
8849;SDS011;5638;50.860;4.698;2022-09-09T17:01:26;2.90;;;1.90;;
8849;SDS011;5638;50.860;4.698;2022-09-09T17:04:01;2.53;;;1.40;;
8849;SDS011;5638;50.860;4.698;2022-09-09T17:06:30;1.87;;;1.17;;
8849;SDS011;5638;50.860;4.698;2022-09-09T17:09:05;1.43;;;1.10;;
8849;SDS011;5638;50.860;4.698;2022-09-09T17:11:37;1.80;;;1.07;;
8849;SDS011;5638;50.860;4.698;2022-09-09T17:14:04;1.60;;;0.97;;
8849;SDS011;5638;50.860;4.698;2022-09-09T17:16:33;2.20;;;1.23;;
8849;SDS011;5638;50.860;4.698;2022-09-09T17:18:59;3.80;;;1.40;;
8849;SDS011;5638;50.860;4.698;2022-09-09T17:21:28;3.27;;;1.20;;
8849;SDS011;5638;50.860;4.698;2022-09-09T17:23:56;2.27;;;1.17;;
8849;SDS011;5638;50.860;4.698;2022-09-09T17:26:24;1.40;;;1.10;;
8849;SDS011;5638;50.860;4.698;2022-09-09T17:28:53;2.13;;;1.03;;
8849;SDS011;5638;50.860;4.698;2022-09-09T17:31:23;1.43;;;1.10;;
8849;SDS011;5638;50.860;4.698;2022-09-09T17:33:51;1.60;;;1.07;;
8849;SDS011;5638;50.860;4.698;2022-09-09T17:36:24;1.10;;;1.00;;
8849;SDS011;5638;50.860;4.698;2022-09-09T17:38:57;1.37;;;0.90;;
8849;SDS011;5638;50.860;4.698;2022-09-09T17:41:28;2.47;;;1.10;;
8849;SDS011;5638;50.860;4.698;2022-09-09T17:44:00;3.37;;;1.10;;
8849;SDS011;5638;50.860;4.698;2022-09-09T17:46:29;2.07;;;1.10;;
8849;SDS011;5638;50.860;4.698;2022-09-09T17:49:01;3.07;;;1.40;;
8849;SDS011;5638;50.860;4.698;2022-09-09T17:51:30;3.60;;;1.23;;
8849;SDS011;5638;50.860;4.698;2022-09-09T17:53:59;1.07;;;0.97;;
8849;SDS011;5638;50.860;4.698;2022-09-09T17:56:32;2.60;;;1.20;;
8849;SDS011;5638;50.860;4.698;2022-09-09T17:59:01;4.33;;;1.20;;
8849;SDS011;5638;50.860;4.698;2022-09-09T18:01:32;5.90;;;1.33;;
8849;SDS011;5638;50.860;4.698;2022-09-09T18:04:02;2.77;;;1.13;;
8849;SDS011;5638;50.860;4.698;2022-09-09T18:06:34;3.13;;;1.20;;
8849;SDS011;5638;50.860;4.698;2022-09-09T18:09:05;5.57;;;2.20;;
8849;SDS011;5638;50.860;4.698;2022-09-09T18:11:38;2.90;;;1.40;;
8849;SDS011;5638;50.860;4.698;2022-09-09T18:14:10;2.23;;;1.30;;
8849;SDS011;5638;50.860;4.698;2022-09-09T18:16:42;4.07;;;1.50;;
8849;SDS011;5638;50.860;4.698;2022-09-09T18:19:09;1.40;;;1.20;;
8849;SDS011;5638;50.860;4.698;2022-09-09T18:21:37;5.70;;;1.40;;
8849;SDS011;5638;50.860;4.698;2022-09-09T18:24:05;1.50;;;1.10;;
8849;SDS011;5638;50.860;4.698;2022-09-09T18:26:33;1.87;;;1.07;;
8849;SDS011;5638;50.860;4.698;2022-09-09T18:29:01;2.23;;;1.20;;
8849;SDS011;5638;50.860;4.698;2022-09-09T18:31:30;2.60;;;1.50;;
8849;SDS011;5638;50.860;4.698;2022-09-09T18:33:58;1.70;;;1.20;;